Time;durP1;ratioP1;P1;durP2;ratioP2;P2;SDS_P1;SDS_P2;PMS_P1;PMS_P2;Temp;Humidity;BMP_temperature;BMP_pressure;BME280_temperature;BME280_humidity;BME280_pressure;Samples;Min_cycle;Max_cycle;Signal;HPM_P1;HPM_P2
2023/07/29 00:02:05;;;;;;;2.40;1.40;;;18.30;99.90;;;19.82;69.03;97197.41;5013354;28;20057;-50
2023/07/29 00:04:32;;;;;;;1.73;1.50;;;18.30;99.90;;;19.83;68.93;97190.09;5012904;28;20509;-51
2023/07/29 00:07:00;;;;;;;5.35;1.60;;;18.30;99.90;;;19.85;69.09;97186.13;5012719;28;20421;-49
2023/07/29 00:09:28;;;;;;;5.45;1.40;;;18.40;99.90;;;19.86;69.21;97186.97;5012475;28;20409;-49
2023/07/29 00:11:55;;;;;;;4.80;1.27;;;18.40;99.90;;;19.86;69.12;97190.47;5012511;28;20046;-49
2023/07/29 00:14:23;;;;;;;1.88;1.38;;;18.40;99.90;;;19.88;69.29;97182.13;5012531;28;20076;-52
2023/07/29 00:16:50;;;;;;;4.68;1.50;;;18.40;99.90;;;19.92;69.25;97174.41;5012746;28;20048;-48
2023/07/29 00:19:20;;;;;;;3.95;1.58;;;18.50;99.90;;;19.97;69.09;97178.06;5008219;28;20518;-47
2023/07/29 00:21:47;;;;;;;3.17;1.42;;;18.50;99.90;;;19.97;69.04;97179.94;5012489;28;20529;-50
2023/07/29 00:24:15;;;;;;;4.65;1.83;;;18.50;99.90;;;19.99;69.19;97186.75;5028204;28;20050;-51
2023/07/29 00:26:42;;;;;;;3.83;1.30;;;18.50;99.90;;;20.00;68.93;97191.09;5012252;28;20041;-50
2023/07/29 00:29:10;;;;;;;2.75;1.77;;;18.50;99.90;;;20.05;69.15;97190.41;5011087;28;20069;-53
2023/07/29 00:31:37;;;;;;;1.85;1.13;;;18.60;99.90;;;20.07;68.97;97188.28;5012567;28;20053;-48
2023/07/29 00:34:05;;;;;;;3.47;1.30;;;18.70;99.90;;;20.10;68.89;97185.09;5012541;28;20069;-52
2023/07/29 00:36:33;;;;;;;4.03;1.75;;;18.70;99.90;;;20.13;68.78;97184.66;5012175;28;20049;-49
2023/07/29 00:39:01;;;;;;;2.25;2.05;;;18.80;99.90;;;20.15;68.84;97177.13;5010947;28;20049;-52
2023/07/29 00:41:29;;;;;;;5.57;2.22;;;18.70;99.90;;;20.17;68.85;97174.19;5012181;28;20046;-53
2023/07/29 00:43:56;;;;;;;2.95;1.60;;;18.70;99.90;;;20.14;68.54;97163.84;5011170;28;20048;-49
2023/07/29 00:46:24;;;;;;;3.05;1.80;;;18.70;99.90;;;20.19;68.72;97158.56;5011022;28;20054;-48
2023/07/29 00:48:52;;;;;;;2.72;1.90;;;18.80;99.90;;;20.17;68.58;97164.22;5011300;28;20046;-50
2023/07/29 00:51:20;;;;;;;2.75;1.60;;;18.70;99.90;;;20.11;68.70;97157.03;4994779;28;20058;-50
2023/07/29 00:53:49;;;;;;;2.15;1.27;;;18.70;99.90;;;20.06;68.66;97170.41;5004451;28;20044;-47
2023/07/29 00:56:17;;;;;;;2.80;1.42;;;18.60;99.90;;;20.09;68.59;97169.16;4978766;28;20054;-49
2023/07/29 00:58:46;;;;;;;4.07;1.63;;;18.60;99.90;;;20.05;68.79;97168.78;5002434;28;20049;-51
2023/07/29 01:01:14;;;;;;;3.20;1.60;;;18.60;99.90;;;20.02;68.77;97166.53;5010565;28;20053;-47
2023/07/29 01:03:42;;;;;;;2.33;1.42;;;18.60;99.90;;;20.05;68.67;97158.78;4993633;28;20042;-50
2023/07/29 01:06:26;;;;;;;2.00;1.63;;;18.60;99.90;;;20.09;68.68;97150.22;5012073;28;20049;-51
2023/07/29 01:09:08;;;;;;;2.35;1.30;;;18.70;99.90;;;20.12;68.57;97144.34;5009771;28;20044;-49
2023/07/29 01:11:55;;;;;;;3.17;1.25;;;18.70;99.90;;;20.11;68.39;97146.22;4994898;28;20427;-47
2023/07/29 01:14:46;;;;;;;3.13;1.80;;;18.70;99.90;;;20.15;68.32;97147.41;4994807;28;20061;-47
2023/07/29 01:17:25;;;;;;;4.00;1.52;;;18.70;99.90;;;20.15;68.31;97139.28;4990224;28;20410;-50
2023/07/29 01:20:13;;;;;;;1.63;1.33;;;18.70;99.90;;;20.16;68.59;97151.78;5003050;28;20053;-50
2023/07/29 01:22:41;;;;;;;2.72;1.25;;;18.70;99.90;;;20.15;68.44;97141.19;5009876;28;20058;-51
2023/07/29 01:25:09;;;;;;;1.75;1.15;;;18.70;99.90;;;20.15;68.28;97144.69;5009283;28;20499;-48
2023/07/29 01:27:37;;;;;;;3.25;1.42;;;18.70;99.90;;;20.16;68.52;97142.81;5026503;28;20049;-51
2023/07/29 01:30:06;;;;;;;1.92;1.50;;;18.70;99.90;;;20.19;68.38;97136.94;5010557;28;20053;-51
2023/07/29 01:32:56;;;;;;;3.30;1.38;;;18.80;99.90;;;20.20;68.14;97146.69;4994212;28;20133;-52
2023/07/29 01:35:35;;;;;;;2.70;1.52;;;18.70;99.90;;;20.23;67.89;97146.22;4993803;28;20053;-50
2023/07/29 01:38:33;;;;;;;3.20;1.92;;;18.80;99.90;;;20.23;68.30;97140.81;5004877;28;20045;-50
2023/07/29 01:41:07;;;;;;;5.15;1.55;;;18.80;99.90;;;20.23;68.21;97138.13;4988933;28;20045;-51
2023/07/29 01:43:43;;;;;;;4.05;1.50;;;18.80;99.90;;;20.20;67.90;97135.88;5010152;28;20049;-49
2023/07/29 01:46:12;;;;;;;2.30;1.50;;;18.70;99.90;;;20.17;68.15;97136.38;5011377;28;20049;-47
2023/07/29 01:48:41;;;;;;;3.88;1.60;;;18.70;99.90;;;20.17;68.21;97137.19;5009424;28;20514;-54
2023/07/29 01:51:12;;;;;;;2.92;1.75;;;18.70;99.90;;;20.16;68.09;97134.72;5010359;28;20050;-50
2023/07/29 01:53:40;;;;;;;3.72;1.48;;;18.70;99.90;;;20.15;67.85;97136.59;5010080;28;20058;-48
2023/07/29 01:56:08;;;;;;;4.40;1.70;;;18.70;99.90;;;20.18;67.83;97125.31;5010175;28;20054;-47
2023/07/29 01:58:39;;;;;;;2.75;1.55;;;18.70;99.90;;;20.20;67.79;97115.09;5009633;28;20054;-51
2023/07/29 02:01:07;;;;;;;2.33;1.70;;;18.80;99.90;;;20.24;67.55;97118.16;5010263;28;20049;-49
2023/07/29 02:03:34;;;;;;;4.97;1.70;;;18.80;99.90;;;20.25;67.46;97115.19;5010037;28;20042;-50
2023/07/29 02:06:02;;;;;;;4.40;1.70;;;18.80;99.90;;;20.27;67.45;97114.97;5010139;28;20069;-49
2023/07/29 02:08:31;;;;;;;5.78;1.73;;;18.90;99.90;;;20.29;67.08;97123.66;5009545;28;20489;-51
2023/07/29 02:10:58;;;;;;;2.72;1.40;;;18.90;99.90;;;20.23;67.06;97122.72;5011310;28;20413;-50
2023/07/29 02:13:26;;;;;;;5.60;1.77;;;18.90;99.90;;;20.26;67.00;97113.34;5010072;28;20061;-47
2023/07/29 02:15:54;;;;;;;2.72;1.80;;;18.80;99.90;;;20.20;66.72;97115.09;5011251;28;20049;-49
2023/07/29 02:18:22;;;;;;;3.13;1.70;;;18.80;99.90;;;20.21;66.98;97114.03;5009218;28;20065;-47
2023/07/29 02:20:50;;;;;;;2.08;1.58;;;18.80;99.90;;;20.19;66.61;97108.03;5011290;28;20073;-49
2023/07/29 02:23:17;;;;;;;3.05;1.80;;;18.80;99.90;;;20.17;66.95;97118.25;5010031;28;20054;-48
2023/07/29 02:25:45;;;;;;;2.63;1.55;;;18.80;99.90;;;20.18;66.93;97119.06;5010184;28;20053;-47
2023/07/29 02:28:13;;;;;;;4.13;1.90;;;18.80;99.90;;;20.19;66.82;97118.03;5009546;28;20065;-48
2023/07/29 02:30:44;;;;;;;4.63;1.80;;;18.70;99.90;;;20.17;66.85;97110.16;5010801;28;20055;-52
2023/07/29 02:33:12;;;;;;;3.75;1.77;;;18.80;99.90;;;20.16;66.89;97115.78;5026391;28;20417;-47
2023/07/29 02:35:39;;;;;;;2.53;1.75;;;18.70;99.90;;;20.14;66.66;97115.19;5018238;28;20433;-51
2023/07/29 02:38:07;;;;;;;2.38;1.55;;;18.80;99.90;;;20.14;66.62;97109.81;4993268;28;20108;-48
2023/07/29 02:40:35;;;;;;;2.30;1.40;;;18.70;99.90;;;20.15;66.80;97106.88;5026078;28;20050;-50
2023/07/29 02:43:03;;;;;;;3.55;1.65;;;18.80;99.90;;;20.16;66.83;97105.81;5010906;28;20053;-48
2023/07/29 02:45:30;;;;;;;2.17;1.50;;;18.70;99.90;;;20.15;66.61;97106.88;5011010;28;20045;-51
2023/07/29 02:47:58;;;;;;;4.70;1.67;;;18.70;99.90;;;20.15;66.91;97116.88;5012730;28;20037;-51
2023/07/29 02:50:25;;;;;;;6.55;1.80;;;18.70;99.90;;;20.15;66.61;97106.88;5014286;28;20045;-51
2023/07/29 02:52:53;;;;;;;2.53;1.42;;;18.70;99.90;;;20.11;66.51;97097.59;5013151;28;20050;-51
2023/07/29 02:55:20;;;;;;;3.55;1.50;;;18.70;99.90;;;20.12;66.50;97101.94;5029938;28;20061;-49
2023/07/29 02:57:48;;;;;;;4.53;1.67;;;18.70;99.90;;;20.14;66.71;97090.88;5012731;28;20057;-49
2023/07/29 03:00:16;;;;;;;5.20;1.35;;;18.70;99.90;;;20.11;66.69;97088.69;5012618;28;20050;-49
2023/07/29 03:02:44;;;;;;;5.13;1.80;;;18.70;99.90;;;20.10;66.67;97089.72;5012673;28;20058;-49
2023/07/29 03:05:12;;;;;;;8.32;2.20;;;18.70;99.90;;;20.11;66.82;97086.78;5012848;28;20046;-47
2023/07/29 03:07:42;;;;;;;2.38;1.58;;;18.70;99.90;;;20.09;66.84;97086.19;5028967;28;20049;-50
2023/07/29 03:10:11;;;;;;;3.60;1.58;;;18.60;99.90;;;20.09;66.82;97078.09;5014058;28;20042;-48
2023/07/29 03:12:38;;;;;;;3.03;1.60;;;18.70;99.90;;;20.06;66.67;97079.41;4996737;28;20413;-52
2023/07/29 03:15:07;;;;;;;1.85;1.40;;;18.60;99.90;;;20.08;66.75;97081.84;5013719;28;20417;-48
2023/07/29 03:17:35;;;;;;;6.22;1.92;;;18.60;99.90;;;20.09;66.81;97077.28;5012091;28;20077;-50
2023/07/29 03:20:02;;;;;;;3.17;2.00;;;18.60;99.90;;;20.05;66.42;97079.63;5010324;28;20061;-47
2023/07/29 03:22:30;;;;;;;3.40;2.22;;;18.60;99.90;;;20.02;66.61;97074.69;5013812;28;20057;-49
2023/07/29 03:24:58;;;;;;;3.90;1.90;;;18.60;99.90;;;20.08;66.86;97083.72;5004193;28;20044;-51
2023/07/29 03:27:25;;;;;;;2.90;2.10;;;18.70;99.90;;;20.10;66.53;97081.63;5028576;28;20057;-49
2023/07/29 03:29:53;;;;;;;4.20;1.80;;;18.70;99.90;;;20.11;66.74;97083.28;5012540;28;20521;-47
2023/07/29 03:32:21;;;;;;;4.90;1.85;;;18.70;99.90;;;20.10;66.50;97084.31;5012675;28;20050;-52
2023/07/29 03:34:48;;;;;;;3.15;2.03;;;18.80;99.90;;;20.11;66.47;97080.56;5013263;28;20046;-52
2023/07/29 03:37:16;;;;;;;3.53;1.63;;;18.80;99.90;;;20.08;66.42;97078.31;5020460;28;20057;-49
2023/07/29 03:39:44;;;;;;;4.78;2.00;;;18.70;99.90;;;20.03;66.80;97070.94;5011865;28;20425;-52
2023/07/29 03:42:11;;;;;;;4.10;1.80;;;18.70;99.90;;;20.08;66.72;97068.34;5013457;28;20544;-49
2023/07/29 03:44:39;;;;;;;3.08;1.75;;;18.70;99.90;;;20.09;66.84;97069.19;5012116;28;20506;-51
2023/07/29 03:47:07;;;;;;;3.05;1.60;;;18.70;99.90;;;20.12;66.56;97064.09;5011879;28;20050;-50
2023/07/29 03:49:37;;;;;;;2.25;1.70;;;18.70;99.90;;;20.15;66.66;97060.13;5028480;28;20061;-48
2023/07/29 03:52:06;;;;;;;3.85;1.95;;;18.70;99.90;;;20.10;66.61;97065.41;5004394;28;20046;-49
2023/07/29 03:54:34;;;;;;;5.45;1.70;;;18.70;99.90;;;20.12;66.69;97074.09;5012226;28;20053;-49
2023/07/29 03:57:02;;;;;;;5.15;2.10;;;18.70;99.90;;;20.14;66.76;97078.22;5012468;28;20053;-49
2023/07/29 03:59:29;;;;;;;3.05;1.75;;;18.70;99.90;;;20.12;66.88;97071.38;5011507;28;20428;-48
2023/07/29 04:01:58;;;;;;;2.83;1.95;;;18.70;99.90;;;20.06;67.27;97074.00;5011860;28;20050;-52
2023/07/29 04:04:26;;;;;;;2.90;1.88;;;18.70;99.90;;;20.03;67.48;97074.44;5011563;28;20045;-50
2023/07/29 04:06:54;;;;;;;2.90;2.03;;;18.60;99.90;;;20.04;67.68;97064.47;5011746;28;20045;-49
2023/07/29 04:09:22;;;;;;;2.92;1.60;;;18.60;99.90;;;20.05;67.36;97048.03;4979609;28;20421;-48
2023/07/29 04:11:50;;;;;;;4.63;2.10;;;18.70;99.90;;;20.05;67.51;97060.72;5011641;28;20105;-50
2023/07/29 04:14:18;;;;;;;3.78;2.13;;;18.60;99.90;;;20.05;67.25;97050.72;5011691;28;20053;-47
2023/07/29 04:16:45;;;;;;;2.25;1.77;;;18.60;99.90;;;20.04;67.49;97056.34;5012746;28;20057;-50
2023/07/29 04:19:16;;;;;;;2.10;1.60;;;18.60;99.90;;;20.02;67.42;97063.88;5011347;28;20506;-49
2023/07/29 04:21:44;;;;;;;2.90;1.70;;;18.60;99.90;;;20.02;67.56;97070.09;4995113;28;20520;-50
2023/07/29 04:24:12;;;;;;;2.80;2.10;;;18.60;99.90;;;20.03;67.81;97073.63;5010813;28;20473;-52
2023/07/29 04:26:39;;;;;;;2.25;1.73;;;18.60;99.90;;;20.02;68.02;97077.38;5011435;28;20129;-49
2023/07/29 04:29:07;;;;;;;3.30;2.13;;;18.60;99.90;;;19.91;68.14;97087.16;5004065;28;20042;-48
2023/07/29 04:31:34;;;;;;;7.80;2.10;;;18.50;99.90;;;19.93;68.28;97100.41;5011435;28;20045;-50
2023/07/29 04:34:02;;;;;;;4.30;1.70;;;18.50;99.90;;;19.85;68.89;97106.97;5019113;28;20049;-49
2023/07/29 04:36:30;;;;;;;4.57;1.55;;;18.50;99.90;;;19.86;69.00;97111.31;5011032;28;20057;-47
2023/07/29 04:38:58;;;;;;;4.90;1.80;;;18.50;99.90;;;19.93;69.04;97124.72;5010855;28;20436;-49
2023/07/29 04:41:26;;;;;;;2.38;1.73;;;18.50;99.90;;;19.92;69.17;97126.59;5011036;28;20053;-48
2023/07/29 04:43:53;;;;;;;3.10;1.42;;;18.50;99.90;;;19.93;69.15;97122.84;4995015;28;20054;-49
2023/07/29 04:46:21;;;;;;;2.92;1.60;;;18.50;99.90;;;19.94;69.22;97126.38;5011235;28;20057;-48
2023/07/29 04:48:49;;;;;;;4.07;2.10;;;18.50;99.90;;;19.85;69.77;97107.81;5010612;28;20421;-49
2023/07/29 04:51:16;;;;;;;4.97;1.85;;;18.50;99.90;;;19.89;69.63;97086.56;5010872;28;20057;-47
2023/07/29 04:53:45;;;;;;;5.18;1.80;;;18.40;99.90;;;19.92;69.71;97063.66;5012084;28;20049;-51
2023/07/29 04:56:13;;;;;;;2.78;1.73;;;18.40;99.90;;;19.95;69.86;97061.31;5010625;28;20046;-51
2023/07/29 04:58:45;;;;;;;2.28;1.60;;;18.40;99.90;;;19.98;69.84;97062.72;5010538;28;20056;-49
2023/07/29 05:01:13;;;;;;;3.22;1.80;;;18.40;99.90;;;20.01;69.64;97068.47;5010753;28;20054;-49
2023/07/29 05:03:41;;;;;;;2.90;1.60;;;18.50;99.90;;;20.03;69.81;97068.22;5010716;28;20050;-48
2023/07/29 05:06:09;;;;;;;2.78;1.98;;;18.50;99.90;;;20.04;69.67;97059.88;5010773;28;20497;-47
2023/07/29 05:08:36;;;;;;;3.35;2.13;;;18.60;99.90;;;20.05;69.94;97068.81;5009378;28;20053;-46
2023/07/29 05:11:04;;;;;;;4.75;1.88;;;18.60;99.90;;;20.03;69.90;97063.66;5010431;28;20058;-47
2023/07/29 05:13:32;;;;;;;4.88;1.67;;;18.70;99.90;;;20.06;70.21;97059.63;5018737;28;20042;-50
2023/07/29 05:16:00;;;;;;;2.42;2.03;;;18.70;99.90;;;20.08;69.71;97057.53;5010138;28;20042;-50
2023/07/29 05:18:27;;;;;;;7.43;1.77;;;18.70;99.90;;;20.09;69.71;97047.56;5010490;28;20046;-48
2023/07/29 05:20:55;;;;;;;4.13;2.00;;;18.70;99.90;;;20.08;69.99;97054.81;5010644;28;20049;-47
2023/07/29 05:23:22;;;;;;;2.88;1.73;;;18.70;99.90;;;20.10;70.00;97060.81;5010450;28;20046;-47
2023/07/29 05:25:50;;;;;;;2.53;1.70;;;18.80;99.90;;;20.14;69.88;97062.00;5009550;28;20050;-51
2023/07/29 05:28:18;;;;;;;3.60;1.88;;;18.80;99.90;;;20.16;69.97;97056.34;5010159;28;20073;-52
2023/07/29 05:30:45;;;;;;;2.20;1.67;;;18.80;99.90;;;20.18;69.80;97063.19;5010293;28;20061;-52
2023/07/29 05:33:13;;;;;;;3.22;1.88;;;18.70;99.90;;;20.20;69.94;97069.16;5010239;28;20421;-52
2023/07/29 05:35:41;;;;;;;2.13;1.60;;;18.70;99.90;;;20.21;69.86;97073.50;5010408;28;20361;-47
2023/07/29 05:38:09;;;;;;;2.20;1.55;;;18.70;99.90;;;20.23;69.59;97078.66;5010071;28;20517;-48
2023/07/29 05:40:37;;;;;;;2.50;1.58;;;18.80;99.90;;;20.22;69.90;97085.13;5010989;28;20052;-48
2023/07/29 05:43:05;;;;;;;2.65;1.20;;;18.70;99.90;;;20.19;69.72;97091.81;5011407;28;20058;-47
2023/07/29 05:45:32;;;;;;;2.20;1.40;;;18.80;99.90;;;20.23;70.00;97093.00;5010098;28;20423;-50
2023/07/29 05:48:00;;;;;;;4.00;1.40;;;18.80;99.90;;;20.28;69.72;97089.59;5018064;28;20037;-46
2023/07/29 05:50:28;;;;;;;2.55;2.03;;;18.90;99.90;;;20.32;70.28;97095.34;5011215;28;20045;-49
2023/07/29 05:52:56;;;;;;;3.33;1.65;;;18.90;99.90;;;20.38;69.84;97083.59;5011131;28;20046;-46
2023/07/29 05:55:24;;;;;;;3.97;1.42;;;19.00;99.90;;;20.41;69.78;97083.94;5011502;28;20048;-51
2023/07/29 05:57:51;;;;;;;2.22;1.60;;;19.00;99.90;;;20.46;69.88;97084.03;5010851;28;20038;-47
2023/07/29 06:00:19;;;;;;;5.53;2.72;;;19.00;99.90;;;20.50;70.18;97072.75;5009988;28;20429;-50
2023/07/29 06:02:46;;;;;;;2.03;1.65;;;19.10;99.90;;;20.51;70.14;97080.63;5010098;28;20054;-46
2023/07/29 06:05:17;;;;;;;1.98;1.30;;;19.10;99.90;;;20.55;69.82;97065.56;5002049;28;20057;-47
2023/07/29 06:07:45;;;;;;;2.08;1.30;;;19.10;99.90;;;20.59;69.68;97060.50;5011072;28;20042;-46
2023/07/29 06:10:18;;;;;;;1.48;1.25;;;19.20;99.90;;;20.64;69.94;97068.75;5010063;28;20034;-47
2023/07/29 06:12:46;;;;;;;2.70;1.48;;;19.30;99.90;;;20.65;70.06;97071.22;5026278;28;20041;-48
2023/07/29 06:15:14;;;;;;;1.83;1.30;;;19.30;99.90;;;20.63;69.87;97069.81;5010218;28;20053;-46
2023/07/29 06:17:42;;;;;;;1.98;1.13;;;19.30;99.90;;;20.64;69.41;97074.16;4992523;28;20052;-49
2023/07/29 06:20:10;;;;;;;1.92;1.13;;;19.30;99.90;;;20.67;69.50;97072.88;5007626;28;20049;-47
2023/07/29 06:22:38;;;;;;;2.38;1.35;;;19.30;99.90;;;20.71;69.57;97077.56;5014901;28;20050;-50
2023/07/29 06:25:06;;;;;;;2.22;1.17;;;19.30;99.90;;;20.72;69.30;97078.34;5013765;28;20053;-52
2023/07/29 06:27:33;;;;;;;2.15;1.02;;;19.40;99.90;;;20.69;69.75;97089.69;5014534;28;20409;-47
2023/07/29 06:30:01;;;;;;;1.88;1.40;;;19.30;99.90;;;20.65;69.50;97092.84;5014780;28;20045;-51
2023/07/29 06:32:28;;;;;;;3.13;1.30;;;19.30;99.90;;;20.67;69.34;97092.63;5013738;28;20413;-47
2023/07/29 06:34:56;;;;;;;1.95;1.40;;;19.30;99.90;;;20.67;69.46;97102.63;5014356;28;20508;-51
2023/07/29 06:37:24;;;;;;;1.70;1.17;;;19.30;99.90;;;20.68;69.73;97096.94;5013488;28;20213;-47
2023/07/29 06:39:51;;;;;;;2.35;1.27;;;19.40;99.90;;;20.76;69.23;97101.16;5014505;28;20042;-48
2023/07/29 06:42:19;;;;;;;3.08;1.92;;;19.40;99.90;;;20.80;69.59;97102.31;5005097;28;20049;-45
2023/07/29 06:44:46;;;;;;;2.75;1.40;;;19.40;99.90;;;20.83;69.51;97099.16;5014526;28;20042;-47
2023/07/29 06:47:14;;;;;;;2.53;1.80;;;19.50;99.90;;;20.85;69.61;97099.72;5013486;28;20060;-46
2023/07/29 06:49:42;;;;;;;2.05;1.10;;;19.50;99.90;;;20.85;69.65;97103.25;5014015;28;20049;-47
2023/07/29 06:52:09;;;;;;;2.33;1.42;;;19.50;99.90;;;20.87;69.50;97105.72;5013818;28;20509;-49
2023/07/29 06:54:37;;;;;;;2.17;1.40;;;19.50;99.90;;;20.88;69.36;97103.81;5017384;28;20046;-48
2023/07/29 06:57:05;;;;;;;3.53;1.58;;;19.60;99.90;;;20.93;69.51;97112.06;5013395;28;20050;-46
2023/07/29 06:59:33;;;;;;;2.50;1.50;;;19.60;99.90;;;20.93;69.73;97110.16;5013132;28;20053;-47
2023/07/29 07:02:01;;;;;;;2.28;1.88;;;19.60;99.90;;;20.98;69.11;97112.16;5029170;28;20056;-47
2023/07/29 07:04:29;;;;;;;4.47;1.70;;;19.70;99.90;;;20.97;69.53;97113.22;5012564;28;20042;-48
2023/07/29 07:06:57;;;;;;;2.55;1.70;;;19.60;99.90;;;21.01;69.65;97111.66;5013621;28;20046;-48
2023/07/29 07:09:24;;;;;;;2.60;1.98;;;19.70;99.90;;;21.02;69.71;97111.44;5012320;28;20065;-47
2023/07/29 07:11:52;;;;;;;2.03;1.42;;;19.70;99.90;;;21.04;69.33;97113.91;5013904;28;20038;-46
2023/07/29 07:14:20;;;;;;;3.42;1.23;;;19.70;99.90;;;21.04;69.89;97120.13;5013518;28;20041;-50
2023/07/29 07:16:47;;;;;;;1.90;1.55;;;19.70;99.90;;;21.06;69.66;97127.19;5014219;28;20513;-45
2023/07/29 07:19:15;;;;;;;1.92;1.48;;;19.70;99.90;;;21.09;69.38;97126.69;5013173;28;20045;-49
2023/07/29 07:21:42;;;;;;;1.42;1.20;;;19.70;99.90;;;21.11;69.30;97129.97;5013751;28;20038;-47
2023/07/29 07:24:10;;;;;;;2.10;1.10;;;19.80;99.90;;;21.13;69.39;97128.69;5013140;28;20053;-45
2023/07/29 07:26:38;;;;;;;2.03;1.63;;;19.90;99.90;;;21.18;69.71;97125.25;5012695;28;20509;-45
2023/07/29 07:29:06;;;;;;;2.03;1.10;;;19.90;99.90;;;21.22;69.52;97134.53;5013129;28;20072;-49
2023/07/29 07:31:34;;;;;;;2.95;1.80;;;20.00;99.90;;;21.24;69.69;97141.34;5013426;28;20118;-45
2023/07/29 07:34:02;;;;;;;3.78;1.30;;;20.00;99.90;;;21.31;69.39;97132.28;5013200;28;20042;-47
2023/07/29 07:36:30;;;;;;;1.75;1.35;;;20.10;99.90;;;21.34;69.13;97126.34;5013488;28;20413;-49
2023/07/29 07:38:58;;;;;;;1.70;1.40;;;20.20;99.90;;;21.41;69.48;97138.69;5012870;28;20417;-46
2023/07/29 07:41:26;;;;;;;2.13;1.60;;;20.20;99.90;;;21.48;69.07;97126.91;5011970;28;20070;-44
2023/07/29 07:43:53;;;;;;;2.03;1.55;;;20.30;99.90;;;21.51;69.11;97132.66;5013381;28;20049;-45
2023/07/29 07:46:21;;;;;;;2.38;1.70;;;20.30;99.90;;;21.54;69.26;97125.94;5013019;28;20520;-46
2023/07/29 07:48:48;;;;;;;4.13;1.70;;;20.30;99.90;;;21.59;68.99;97129.53;5012613;28;20049;-46
2023/07/29 07:51:16;;;;;;;2.85;1.45;;;20.30;99.90;;;21.65;68.98;97113.38;5013018;28;20049;-49
2023/07/29 07:53:43;;;;;;;3.47;1.30;;;20.40;99.90;;;21.72;68.75;97114.06;5013223;28;20045;-48
2023/07/29 07:56:11;;;;;;;3.40;1.60;;;20.50;99.90;;;21.77;68.80;97117.69;5013148;28;20076;-46
2023/07/29 07:58:39;;;;;;;2.63;1.45;;;20.60;99.90;;;21.78;69.09;97110.38;5012208;28;20521;-44
2023/07/29 08:01:08;;;;;;;2.38;1.67;;;20.60;99.90;;;21.87;68.96;97117.03;5012873;28;20045;-47
2023/07/29 08:03:36;;;;;;;1.67;1.27;;;20.70;99.90;;;21.99;68.93;97101.50;5012993;28;20042;-49
2023/07/29 08:06:05;;;;;;;2.85;1.52;;;20.90;99.90;;;22.14;69.13;97117.16;5012548;28;20046;-46
2023/07/29 08:08:37;;;;;;;2.95;1.55;;;21.10;99.90;;;22.23;68.60;97118.38;5012042;28;20049;-47
2023/07/29 08:11:05;;;;;;;4.00;1.90;;;21.20;99.90;;;22.32;68.66;97131.56;5019678;28;20052;-48
2023/07/29 08:13:32;;;;;;;2.03;1.67;;;21.30;99.90;;;22.39;68.19;97140.31;5011543;28;20064;-49
2023/07/29 08:16:00;;;;;;;1.60;1.17;;;21.40;99.90;;;22.37;67.96;97142.44;5012736;28;20440;-49
2023/07/29 08:18:28;;;;;;;1.77;1.25;;;21.30;99.90;;;22.40;67.80;97145.50;5012437;28;20045;-45
2023/07/29 08:21:02;;;;;;;2.45;1.10;;;21.30;99.90;;;22.42;67.25;97159.63;5005014;28;20042;-45
2023/07/29 08:23:35;;;;;;;1.13;1.00;;;21.30;99.90;;;22.34;66.47;97165.47;5003411;28;20057;-44
2023/07/29 08:26:06;;;;;;;2.33;1.50;;;21.30;99.90;;;22.35;66.58;97160.88;5006943;28;20052;-47
2023/07/29 08:28:37;;;;;;;2.28;1.40;;;21.30;99.90;;;22.40;66.18;97150.09;5005598;28;20416;-47
2023/07/29 08:31:06;;;;;;;1.55;1.10;;;21.30;99.90;;;22.47;65.98;97152.63;5005821;28;20053;-49
2023/07/29 08:33:34;;;;;;;1.42;1.30;;;21.40;99.90;;;22.44;65.55;97155.84;5006116;28;20038;-48
2023/07/29 08:36:03;;;;;;;1.85;1.40;;;21.40;99.90;;;22.58;65.74;97151.72;5002863;28;20042;-52
2023/07/29 08:38:31;;;;;;;1.55;1.30;;;21.50;99.90;;;22.58;65.72;97157.94;5003987;28;20532;-48
2023/07/29 08:41:04;;;;;;;1.95;1.75;;;21.60;99.90;;;22.69;65.26;97152.69;4998772;28;20052;-49
2023/07/29 08:43:33;;;;;;;1.92;1.60;;;21.70;99.90;;;22.74;65.56;97148.16;5011084;28;20390;-49
2023/07/29 08:46:00;;;;;;;1.70;1.58;;;21.70;99.90;;;22.79;65.29;97140.06;5007707;28;20502;-52
2023/07/29 08:48:39;;;;;;;2.03;1.50;;;21.80;99.90;;;22.91;65.41;97144.53;5003021;28;20721;-51
2023/07/29 08:51:09;;;;;;;2.95;1.42;;;21.90;99.90;;;22.99;65.07;97144.94;5006242;28;20045;-53
2023/07/29 08:53:38;;;;;;;1.67;1.30;;;21.90;99.90;;;23.08;64.93;97134.47;5002913;28;20057;-49
2023/07/29 08:56:07;;;;;;;2.05;1.10;;;22.10;99.90;;;23.13;65.11;97148.09;5006650;28;20057;-52
2023/07/29 08:58:36;;;;;;;1.77;1.50;;;22.10;99.90;;;23.16;64.53;97133.19;5005411;28;20509;-51
2023/07/29 09:01:03;;;;;;;2.00;1.35;;;22.10;99.90;;;23.25;64.24;97137.09;5003878;28;20157;-52
2023/07/29 09:03:32;;;;;;;2.33;1.52;;;22.20;99.90;;;23.28;64.09;97135.75;5005504;28;20613;-49
2023/07/29 09:06:01;;;;;;;1.67;1.30;;;22.30;99.90;;;23.28;63.69;97144.72;5001040;28;20052;-52
2023/07/29 09:08:29;;;;;;;2.75;1.40;;;22.20;99.90;;;23.22;63.58;97134.88;5001453;28;20101;-49
2023/07/29 09:10:57;;;;;;;3.40;1.33;;;22.20;99.90;;;23.27;63.03;97128.72;5006889;28;20048;-49
2023/07/29 09:13:26;;;;;;;2.88;1.75;;;22.10;99.90;;;23.29;62.84;97121.13;5007465;28;20042;-48
2023/07/29 09:15:59;;;;;;;2.35;1.65;;;22.20;99.90;;;23.33;62.71;97130.41;5004527;28;20045;-51
2023/07/29 09:18:28;;;;;;;1.73;1.35;;;22.20;99.90;;;23.39;62.65;97132.09;5004663;28;20038;-49
2023/07/29 09:21:00;;;;;;;1.85;1.65;;;22.30;99.90;;;23.50;62.57;97131.13;5004626;28;20505;-51
2023/07/29 09:23:28;;;;;;;1.40;1.30;;;22.40;99.90;;;23.64;62.66;97122.56;5011863;28;20042;-49
2023/07/29 09:26:03;;;;;;;2.08;1.73;;;22.60;99.90;;;23.81;62.44;97126.00;5011551;28;20405;-49
2023/07/29 09:28:41;;;;;;;1.67;1.30;;;22.80;99.90;;;23.92;62.63;97125.00;5005902;28;20050;-50
2023/07/29 09:31:23;;;;;;;3.53;1.50;;;23.00;99.90;;;23.92;61.00;97135.03;5004961;28;20053;-48
2023/07/29 09:34:03;;;;;;;2.78;1.52;;;22.90;99.90;;;23.91;60.72;97131.50;5004486;28;20049;-52
2023/07/29 09:36:33;;;;;;;2.85;1.60;;;22.90;99.90;;;23.87;59.31;97135.81;5005505;28;20050;-48
2023/07/29 09:39:01;;;;;;;2.15;1.10;;;22.80;99.30;;;23.72;58.61;97141.09;5004217;28;20301;-49
2023/07/29 09:41:32;;;;;;;1.67;1.58;;;22.60;96.50;;;23.70;58.91;97146.78;5005107;28;20053;-52
2023/07/29 09:44:03;;;;;;;1.40;1.30;;;22.60;99.10;;;23.54;58.82;97132.25;5006182;28;20065;-49
2023/07/29 09:46:38;;;;;;;2.45;1.30;;;22.40;98.50;;;23.28;59.06;97150.16;5001296;28;20218;-51
2023/07/29 09:49:07;;;;;;;2.20;1.83;;;22.20;98.70;;;23.06;60.95;97161.03;5002680;28;20049;-49
2023/07/29 09:51:39;;;;;;;1.85;1.52;;;21.80;99.90;;;22.66;61.68;97164.84;5004616;28;20049;-49
2023/07/29 09:54:07;;;;;;;1.80;1.40;;;21.40;99.90;;;22.23;63.36;97163.66;5004751;28;20041;-50
2023/07/29 09:56:42;;;;;;;2.05;1.20;;;21.10;99.90;;;21.94;64.68;97192.72;5005917;28;20060;-51
2023/07/29 09:59:11;;;;;;;2.22;1.23;;;20.80;99.90;;;21.72;65.35;97173.66;5005063;28;20421;-51
2023/07/29 10:01:39;;;;;;;2.28;1.30;;;20.50;99.90;;;21.85;65.22;97180.63;5007821;28;20052;-49
2023/07/29 10:04:09;;;;;;;2.97;1.48;;;20.50;99.90;;;21.56;65.97;97173.38;5003972;28;20417;-53
2023/07/29 10:06:42;;;;;;;2.15;1.40;;;20.30;99.90;;;21.38;66.73;97157.28;5007815;28;20038;-50
2023/07/29 10:09:12;;;;;;;1.60;1.27;;;20.20;99.90;;;21.47;66.61;97161.28;5008678;28;20041;-52
2023/07/29 10:11:41;;;;;;;1.45;1.20;;;20.20;99.90;;;21.45;66.52;97158.00;5009131;28;20458;-53
2023/07/29 10:14:09;;;;;;;1.73;1.50;;;20.30;99.90;;;21.65;65.90;97156.72;5007247;28;20042;-52
2023/07/29 10:16:40;;;;;;;2.60;1.58;;;20.40;99.90;;;21.71;66.18;97167.41;5008235;28;20053;-51
2023/07/29 10:19:09;;;;;;;1.92;1.50;;;20.50;99.90;;;21.83;65.53;97170.06;5007477;28;20061;-51
2023/07/29 10:21:39;;;;;;;2.00;1.50;;;20.60;99.90;;;21.79;65.89;97168.88;5008427;28;20054;-50
2023/07/29 10:24:18;;;;;;;2.28;1.55;;;20.70;99.90;;;22.00;65.99;97172.75;5013939;28;20409;-52
2023/07/29 10:26:49;;;;;;;1.65;1.10;;;20.90;99.90;;;22.01;65.66;97167.09;4986259;28;20049;-49
2023/07/29 10:29:22;;;;;;;1.98;1.35;;;20.90;99.90;;;22.21;65.40;97163.88;5009673;28;20413;-51